Air Navigation Services of Czech Republic
Airport: LKKV Updated:  22.04.2021 17:30:26  UTC
 METAR LKKV 22.04. 17:30 ...
METAR LKKV 221730Z 30011KT CAVOK 06/M05 Q1021 RMK REG QNH 1015=
 TAF LKKV 22.04. 17:00 ...
TAF LKKV 221700Z 2218/2400 30008KT CAVOK      TEMPO 2218/2220 32012G24KT      TEMPO 2308/2318 32010G22KT=